sensor_id;sensor_type;location;lat;lon;timestamp;P1;durP1;ratioP1;P2;durP2;ratioP2
13040;SDS011;6587;42.728;23.288;2023-06-26T00:00:08;28.90;;;20.10;;
13040;SDS011;6587;42.728;23.288;2023-06-26T00:02:36;30.97;;;22.57;;
13040;SDS011;6587;42.728;23.288;2023-06-26T00:05:03;30.07;;;21.83;;
13040;SDS011;6587;42.728;23.288;2023-06-26T00:07:33;31.93;;;20.80;;
13040;SDS011;6587;42.728;23.288;2023-06-26T00:10:00;28.67;;;20.63;;
13040;SDS011;6587;42.728;23.288;2023-06-26T00:12:28;28.23;;;21.23;;
13040;SDS011;6587;42.728;23.288;2023-06-26T00:14:55;31.50;;;21.47;;
13040;SDS011;6587;42.728;23.288;2023-06-26T00:17:22;29.80;;;20.73;;
13040;SDS011;6587;42.728;23.288;2023-06-26T00:19:49;30.13;;;20.83;;
13040;SDS011;6587;42.728;23.288;2023-06-26T00:22:17;26.47;;;19.73;;
13040;SDS011;6587;42.728;23.288;2023-06-26T00:24:46;25.87;;;19.53;;
13040;SDS011;6587;42.728;23.288;2023-06-26T00:27:12;28.13;;;19.37;;
13040;SDS011;6587;42.728;23.288;2023-06-26T00:29:39;28.27;;;20.03;;
13040;SDS011;6587;42.728;23.288;2023-06-26T00:32:06;27.10;;;19.70;;
13040;SDS011;6587;42.728;23.288;2023-06-26T00:34:33;23.93;;;18.03;;
13040;SDS011;6587;42.728;23.288;2023-06-26T00:37:00;24.97;;;18.77;;
13040;SDS011;6587;42.728;23.288;2023-06-26T00:39:27;28.93;;;18.43;;
13040;SDS011;6587;42.728;23.288;2023-06-26T00:41:55;24.47;;;18.17;;
13040;SDS011;6587;42.728;23.288;2023-06-26T00:44:22;23.57;;;17.83;;
13040;SDS011;6587;42.728;23.288;2023-06-26T00:46:49;22.27;;;16.83;;
13040;SDS011;6587;42.728;23.288;2023-06-26T00:49:16;22.37;;;17.23;;
13040;SDS011;6587;42.728;23.288;2023-06-26T00:51:44;24.20;;;17.87;;
13040;SDS011;6587;42.728;23.288;2023-06-26T00:54:11;23.67;;;17.07;;
13040;SDS011;6587;42.728;23.288;2023-06-26T00:56:39;23.40;;;16.77;;
13040;SDS011;6587;42.728;23.288;2023-06-26T00:59:08;22.10;;;16.90;;
13040;SDS011;6587;42.728;23.288;2023-06-26T01:01:35;22.67;;;16.40;;
13040;SDS011;6587;42.728;23.288;2023-06-26T01:04:02;21.27;;;16.70;;
13040;SDS011;6587;42.728;23.288;2023-06-26T01:06:31;20.37;;;16.00;;
13040;SDS011;6587;42.728;23.288;2023-06-26T01:09:00;24.83;;;17.57;;
13040;SDS011;6587;42.728;23.288;2023-06-26T01:11:28;21.23;;;16.50;;
13040;SDS011;6587;42.728;23.288;2023-06-26T01:13:55;22.60;;;16.63;;
13040;SDS011;6587;42.728;23.288;2023-06-26T01:16:25;23.83;;;16.37;;
13040;SDS011;6587;42.728;23.288;2023-06-26T01:18:54;20.77;;;16.47;;
13040;SDS011;6587;42.728;23.288;2023-06-26T01:21:22;21.00;;;16.70;;
13040;SDS011;6587;42.728;23.288;2023-06-26T01:24:02;22.67;;;17.13;;
13040;SDS011;6587;42.728;23.288;2023-06-26T01:26:36;20.63;;;16.60;;
13040;SDS011;6587;42.728;23.288;2023-06-26T01:29:06;23.00;;;16.90;;
13040;SDS011;6587;42.728;23.288;2023-06-26T01:31:37;20.77;;;16.77;;
13040;SDS011;6587;42.728;23.288;2023-06-26T01:34:04;23.33;;;17.47;;
13040;SDS011;6587;42.728;23.288;2023-06-26T01:36:31;26.00;;;17.67;;
13040;SDS011;6587;42.728;23.288;2023-06-26T01:38:58;22.07;;;17.20;;
13040;SDS011;6587;42.728;23.288;2023-06-26T01:41:25;22.97;;;17.00;;
13040;SDS011;6587;42.728;23.288;2023-06-26T01:44:01;22.23;;;17.93;;
13040;SDS011;6587;42.728;23.288;2023-06-26T01:46:42;24.20;;;17.53;;
13040;SDS011;6587;42.728;23.288;2023-06-26T01:49:16;23.60;;;17.53;;
13040;SDS011;6587;42.728;23.288;2023-06-26T01:51:50;24.33;;;17.87;;
13040;SDS011;6587;42.728;23.288;2023-06-26T01:54:22;24.80;;;18.40;;
13040;SDS011;6587;42.728;23.288;2023-06-26T01:56:52;23.37;;;17.57;;
13040;SDS011;6587;42.728;23.288;2023-06-26T01:59:23;23.20;;;18.10;;
13040;SDS011;6587;42.728;23.288;2023-06-26T02:01:54;22.27;;;17.80;;
13040;SDS011;6587;42.728;23.288;2023-06-26T02:04:21;22.70;;;18.27;;
13040;SDS011;6587;42.728;23.288;2023-06-26T02:06:48;26.50;;;18.33;;
13040;SDS011;6587;42.728;23.288;2023-06-26T02:09:15;22.83;;;17.53;;
13040;SDS011;6587;42.728;23.288;2023-06-26T02:11:43;25.33;;;18.50;;
13040;SDS011;6587;42.728;23.288;2023-06-26T02:14:10;22.77;;;18.13;;
13040;SDS011;6587;42.728;23.288;2023-06-26T02:16:39;24.00;;;18.60;;
13040;SDS011;6587;42.728;23.288;2023-06-26T02:19:06;27.27;;;18.97;;
13040;SDS011;6587;42.728;23.288;2023-06-26T02:21:34;25.17;;;19.37;;
13040;SDS011;6587;42.728;23.288;2023-06-26T02:24:01;24.80;;;19.07;;
13040;SDS011;6587;42.728;23.288;2023-06-26T02:26:28;24.03;;;20.07;;
13040;SDS011;6587;42.728;23.288;2023-06-26T02:28:55;25.30;;;19.63;;
13040;SDS011;6587;42.728;23.288;2023-06-26T02:31:22;27.30;;;20.53;;
13040;SDS011;6587;42.728;23.288;2023-06-26T02:33:50;29.77;;;21.27;;
13040;SDS011;6587;42.728;23.288;2023-06-26T02:36:17;26.60;;;20.40;;
13040;SDS011;6587;42.728;23.288;2023-06-26T02:38:44;25.13;;;20.57;;
13040;SDS011;6587;42.728;23.288;2023-06-26T02:41:11;29.67;;;22.53;;
13040;SDS011;6587;42.728;23.288;2023-06-26T02:43:38;32.83;;;22.20;;
13040;SDS011;6587;42.728;23.288;2023-06-26T02:46:05;31.80;;;21.97;;
13040;SDS011;6587;42.728;23.288;2023-06-26T02:48:32;28.67;;;22.17;;
13040;SDS011;6587;42.728;23.288;2023-06-26T02:51:00;31.13;;;22.73;;
13040;SDS011;6587;42.728;23.288;2023-06-26T02:53:30;29.97;;;22.47;;
13040;SDS011;6587;42.728;23.288;2023-06-26T02:55:57;30.40;;;22.43;;
13040;SDS011;6587;42.728;23.288;2023-06-26T02:58:24;29.63;;;22.97;;
13040;SDS011;6587;42.728;23.288;2023-06-26T03:00:51;35.77;;;23.57;;
13040;SDS011;6587;42.728;23.288;2023-06-26T03:03:19;32.53;;;25.50;;
13040;SDS011;6587;42.728;23.288;2023-06-26T03:05:46;33.53;;;23.87;;
13040;SDS011;6587;42.728;23.288;2023-06-26T03:08:14;32.90;;;24.50;;
13040;SDS011;6587;42.728;23.288;2023-06-26T03:10:41;35.70;;;25.07;;
13040;SDS011;6587;42.728;23.288;2023-06-26T03:13:09;32.17;;;23.77;;
13040;SDS011;6587;42.728;23.288;2023-06-26T03:15:36;33.80;;;25.23;;
13040;SDS011;6587;42.728;23.288;2023-06-26T03:18:05;28.93;;;22.70;;
13040;SDS011;6587;42.728;23.288;2023-06-26T03:20:32;36.40;;;24.80;;
13040;SDS011;6587;42.728;23.288;2023-06-26T03:22:58;32.63;;;24.67;;
13040;SDS011;6587;42.728;23.288;2023-06-26T03:25:27;33.90;;;24.73;;
13040;SDS011;6587;42.728;23.288;2023-06-26T03:28:08;37.43;;;25.83;;
13040;SDS011;6587;42.728;23.288;2023-06-26T03:30:35;36.63;;;24.67;;
13040;SDS011;6587;42.728;23.288;2023-06-26T03:33:02;35.83;;;25.60;;
13040;SDS011;6587;42.728;23.288;2023-06-26T03:35:29;39.83;;;26.37;;
13040;SDS011;6587;42.728;23.288;2023-06-26T03:37:56;35.07;;;26.03;;
13040;SDS011;6587;42.728;23.288;2023-06-26T03:40:24;36.70;;;26.57;;
13040;SDS011;6587;42.728;23.288;2023-06-26T03:42:53;36.00;;;26.27;;
13040;SDS011;6587;42.728;23.288;2023-06-26T03:45:19;36.33;;;26.70;;
13040;SDS011;6587;42.728;23.288;2023-06-26T03:47:48;34.07;;;26.80;;
13040;SDS011;6587;42.728;23.288;2023-06-26T03:50:15;36.80;;;27.33;;
13040;SDS011;6587;42.728;23.288;2023-06-26T03:52:42;36.83;;;27.13;;
13040;SDS011;6587;42.728;23.288;2023-06-26T03:55:11;34.60;;;25.77;;
13040;SDS011;6587;42.728;23.288;2023-06-26T03:57:38;35.00;;;27.00;;
13040;SDS011;6587;42.728;23.288;2023-06-26T04:00:09;31.70;;;25.43;;
13040;SDS011;6587;42.728;23.288;2023-06-26T04:02:40;33.57;;;25.03;;
13040;SDS011;6587;42.728;23.288;2023-06-26T04:05:08;31.10;;;25.40;;
13040;SDS011;6587;42.728;23.288;2023-06-26T04:07:36;31.97;;;25.87;;
13040;SDS011;6587;42.728;23.288;2023-06-26T04:10:05;36.97;;;24.97;;
13040;SDS011;6587;42.728;23.288;2023-06-26T04:12:33;33.13;;;23.40;;
13040;SDS011;6587;42.728;23.288;2023-06-26T04:15:00;32.17;;;24.33;;
13040;SDS011;6587;42.728;23.288;2023-06-26T04:17:29;30.40;;;24.40;;
13040;SDS011;6587;42.728;23.288;2023-06-26T04:19:56;32.30;;;23.77;;
13040;SDS011;6587;42.728;23.288;2023-06-26T04:22:23;33.17;;;24.20;;
13040;SDS011;6587;42.728;23.288;2023-06-26T04:24:51;28.97;;;23.30;;
13040;SDS011;6587;42.728;23.288;2023-06-26T04:27:17;30.00;;;22.53;;
13040;SDS011;6587;42.728;23.288;2023-06-26T04:29:45;33.40;;;24.33;;
13040;SDS011;6587;42.728;23.288;2023-06-26T04:32:11;31.70;;;23.00;;
13040;SDS011;6587;42.728;23.288;2023-06-26T04:34:40;32.93;;;22.90;;
13040;SDS011;6587;42.728;23.288;2023-06-26T04:37:09;28.63;;;23.40;;
13040;SDS011;6587;42.728;23.288;2023-06-26T04:39:36;29.03;;;22.47;;
13040;SDS011;6587;42.728;23.288;2023-06-26T04:42:04;31.47;;;22.97;;
13040;SDS011;6587;42.728;23.288;2023-06-26T04:44:31;30.13;;;23.97;;
13040;SDS011;6587;42.728;23.288;2023-06-26T04:46:58;31.80;;;23.57;;
13040;SDS011;6587;42.728;23.288;2023-06-26T04:49:25;29.77;;;22.23;;
13040;SDS011;6587;42.728;23.288;2023-06-26T04:51:54;29.30;;;22.47;;
13040;SDS011;6587;42.728;23.288;2023-06-26T04:54:21;30.53;;;22.83;;
13040;SDS011;6587;42.728;23.288;2023-06-26T04:56:48;32.60;;;23.40;;
13040;SDS011;6587;42.728;23.288;2023-06-26T04:59:15;29.47;;;22.80;;
13040;SDS011;6587;42.728;23.288;2023-06-26T05:01:42;27.93;;;21.80;;
13040;SDS011;6587;42.728;23.288;2023-06-26T05:04:09;31.00;;;21.37;;
13040;SDS011;6587;42.728;23.288;2023-06-26T05:06:36;26.13;;;21.43;;
13040;SDS011;6587;42.728;23.288;2023-06-26T05:09:04;25.00;;;20.07;;
13040;SDS011;6587;42.728;23.288;2023-06-26T05:11:31;24.83;;;19.13;;
13040;SDS011;6587;42.728;23.288;2023-06-26T05:13:58;25.03;;;19.17;;
13040;SDS011;6587;42.728;23.288;2023-06-26T05:16:24;26.27;;;19.20;;
13040;SDS011;6587;42.728;23.288;2023-06-26T05:18:51;25.63;;;19.90;;
13040;SDS011;6587;42.728;23.288;2023-06-26T05:21:19;27.47;;;19.93;;
13040;SDS011;6587;42.728;23.288;2023-06-26T05:23:47;23.80;;;19.03;;
13040;SDS011;6587;42.728;23.288;2023-06-26T05:26:17;24.97;;;18.03;;
13040;SDS011;6587;42.728;23.288;2023-06-26T05:28:44;31.63;;;18.63;;
13040;SDS011;6587;42.728;23.288;2023-06-26T05:31:13;29.20;;;19.23;;
13040;SDS011;6587;42.728;23.288;2023-06-26T05:33:42;24.63;;;18.97;;
13040;SDS011;6587;42.728;23.288;2023-06-26T05:36:10;23.00;;;19.10;;
13040;SDS011;6587;42.728;23.288;2023-06-26T05:38:39;27.57;;;20.00;;
13040;SDS011;6587;42.728;23.288;2023-06-26T05:41:07;26.77;;;19.10;;
13040;SDS011;6587;42.728;23.288;2023-06-26T05:43:35;23.93;;;19.27;;
13040;SDS011;6587;42.728;23.288;2023-06-26T05:46:02;23.07;;;18.80;;
13040;SDS011;6587;42.728;23.288;2023-06-26T05:48:29;25.60;;;19.17;;
13040;SDS011;6587;42.728;23.288;2023-06-26T05:50:56;24.63;;;19.87;;
13040;SDS011;6587;42.728;23.288;2023-06-26T05:53:23;22.70;;;18.80;;
13040;SDS011;6587;42.728;23.288;2023-06-26T05:55:51;24.30;;;18.97;;
13040;SDS011;6587;42.728;23.288;2023-06-26T05:58:18;27.50;;;18.13;;
13040;SDS011;6587;42.728;23.288;2023-06-26T06:00:49;21.67;;;17.90;;
13040;SDS011;6587;42.728;23.288;2023-06-26T06:03:16;22.73;;;17.93;;
13040;SDS011;6587;42.728;23.288;2023-06-26T06:05:43;23.60;;;18.03;;
13040;SDS011;6587;42.728;23.288;2023-06-26T06:08:10;23.93;;;18.07;;
13040;SDS011;6587;42.728;23.288;2023-06-26T06:10:36;22.33;;;17.53;;
13040;SDS011;6587;42.728;23.288;2023-06-26T06:13:03;26.20;;;17.87;;
13040;SDS011;6587;42.728;23.288;2023-06-26T06:15:30;23.03;;;18.30;;
13040;SDS011;6587;42.728;23.288;2023-06-26T06:17:58;23.17;;;17.47;;
13040;SDS011;6587;42.728;23.288;2023-06-26T06:20:25;23.93;;;17.67;;
13040;SDS011;6587;42.728;23.288;2023-06-26T06:22:52;21.63;;;16.77;;
13040;SDS011;6587;42.728;23.288;2023-06-26T06:25:19;24.93;;;17.50;;
13040;SDS011;6587;42.728;23.288;2023-06-26T06:27:46;21.57;;;16.43;;
13040;SDS011;6587;42.728;23.288;2023-06-26T06:30:12;23.37;;;17.43;;
13040;SDS011;6587;42.728;23.288;2023-06-26T06:32:40;18.73;;;15.50;;
13040;SDS011;6587;42.728;23.288;2023-06-26T06:35:08;21.90;;;16.83;;
13040;SDS011;6587;42.728;23.288;2023-06-26T06:37:36;18.63;;;16.00;;
13040;SDS011;6587;42.728;23.288;2023-06-26T06:40:03;24.23;;;16.37;;
13040;SDS011;6587;42.728;23.288;2023-06-26T06:42:32;19.37;;;14.50;;
13040;SDS011;6587;42.728;23.288;2023-06-26T06:44:59;15.43;;;13.07;;
13040;SDS011;6587;42.728;23.288;2023-06-26T06:47:26;18.03;;;14.50;;
13040;SDS011;6587;42.728;23.288;2023-06-26T06:49:53;17.50;;;14.20;;
13040;SDS011;6587;42.728;23.288;2023-06-26T06:52:21;16.93;;;12.87;;
13040;SDS011;6587;42.728;23.288;2023-06-26T06:54:51;17.53;;;13.57;;
13040;SDS011;6587;42.728;23.288;2023-06-26T06:57:19;16.70;;;13.90;;
13040;SDS011;6587;42.728;23.288;2023-06-26T06:59:46;16.40;;;13.73;;
13040;SDS011;6587;42.728;23.288;2023-06-26T07:02:13;17.03;;;12.70;;
13040;SDS011;6587;42.728;23.288;2023-06-26T07:04:40;15.03;;;13.13;;
13040;SDS011;6587;42.728;23.288;2023-06-26T07:07:07;14.70;;;12.60;;
13040;SDS011;6587;42.728;23.288;2023-06-26T07:09:36;15.40;;;12.57;;
13040;SDS011;6587;42.728;23.288;2023-06-26T07:12:03;14.23;;;11.43;;
13040;SDS011;6587;42.728;23.288;2023-06-26T07:14:31;12.83;;;10.90;;
13040;SDS011;6587;42.728;23.288;2023-06-26T07:16:58;18.43;;;12.07;;
13040;SDS011;6587;42.728;23.288;2023-06-26T07:19:25;14.47;;;11.17;;
13040;SDS011;6587;42.728;23.288;2023-06-26T07:21:52;13.87;;;11.07;;
13040;SDS011;6587;42.728;23.288;2023-06-26T07:24:18;12.00;;;8.97;;
13040;SDS011;6587;42.728;23.288;2023-06-26T07:26:47;12.80;;;10.37;;
13040;SDS011;6587;42.728;23.288;2023-06-26T07:29:13;10.53;;;8.93;;
13040;SDS011;6587;42.728;23.288;2023-06-26T07:31:40;12.03;;;9.30;;
13040;SDS011;6587;42.728;23.288;2023-06-26T07:34:07;12.40;;;9.93;;
13040;SDS011;6587;42.728;23.288;2023-06-26T07:36:34;13.50;;;10.63;;
13040;SDS011;6587;42.728;23.288;2023-06-26T07:39:01;12.20;;;10.60;;
13040;SDS011;6587;42.728;23.288;2023-06-26T07:41:28;11.67;;;8.97;;
13040;SDS011;6587;42.728;23.288;2023-06-26T07:43:58;14.13;;;9.57;;
13040;SDS011;6587;42.728;23.288;2023-06-26T07:46:25;10.75;;;8.88;;
13040;SDS011;6587;42.728;23.288;2023-06-26T07:48:52;10.23;;;8.70;;
13040;SDS011;6587;42.728;23.288;2023-06-26T07:51:19;10.85;;;8.70;;
13040;SDS011;6587;42.728;23.288;2023-06-26T07:53:46;9.95;;;8.18;;
13040;SDS011;6587;42.728;23.288;2023-06-26T07:56:13;11.97;;;9.37;;
13040;SDS011;6587;42.728;23.288;2023-06-26T07:58:40;10.37;;;9.03;;
13040;SDS011;6587;42.728;23.288;2023-06-26T08:01:08;12.60;;;9.93;;
13040;SDS011;6587;42.728;23.288;2023-06-26T08:03:35;12.90;;;10.17;;
13040;SDS011;6587;42.728;23.288;2023-06-26T08:06:02;11.27;;;9.50;;
13040;SDS011;6587;42.728;23.288;2023-06-26T08:08:29;13.80;;;9.30;;
13040;SDS011;6587;42.728;23.288;2023-06-26T08:10:56;13.60;;;9.03;;
13040;SDS011;6587;42.728;23.288;2023-06-26T08:13:23;12.50;;;9.52;;
13040;SDS011;6587;42.728;23.288;2023-06-26T08:15:50;11.88;;;8.68;;
13040;SDS011;6587;42.728;23.288;2023-06-26T08:18:18;11.88;;;8.57;;
13040;SDS011;6587;42.728;23.288;2023-06-26T08:20:45;10.73;;;9.23;;
13040;SDS011;6587;42.728;23.288;2023-06-26T08:23:12;11.32;;;8.85;;
13040;SDS011;6587;42.728;23.288;2023-06-26T08:25:39;11.40;;;7.75;;
13040;SDS011;6587;42.728;23.288;2023-06-26T08:28:06;14.60;;;8.97;;
13040;SDS011;6587;42.728;23.288;2023-06-26T08:30:33;11.90;;;8.40;;
13040;SDS011;6587;42.728;23.288;2023-06-26T08:33:00;9.23;;;8.20;;
13040;SDS011;6587;42.728;23.288;2023-06-26T08:35:28;9.02;;;8.15;;
13040;SDS011;6587;42.728;23.288;2023-06-26T08:37:55;13.32;;;8.27;;
13040;SDS011;6587;42.728;23.288;2023-06-26T08:40:21;12.50;;;8.30;;
13040;SDS011;6587;42.728;23.288;2023-06-26T08:42:48;8.82;;;7.93;;
13040;SDS011;6587;42.728;23.288;2023-06-26T08:45:18;13.02;;;8.00;;
13040;SDS011;6587;42.728;23.288;2023-06-26T08:47:45;10.20;;;7.43;;
13040;SDS011;6587;42.728;23.288;2023-06-26T08:50:17;9.30;;;7.50;;
13040;SDS011;6587;42.728;23.288;2023-06-26T08:52:52;10.30;;;7.40;;
13040;SDS011;6587;42.728;23.288;2023-06-26T08:55:20;11.15;;;7.53;;
13040;SDS011;6587;42.728;23.288;2023-06-26T08:57:51;10.50;;;7.60;;
13040;SDS011;6587;42.728;23.288;2023-06-26T09:00:18;8.32;;;6.93;;
13040;SDS011;6587;42.728;23.288;2023-06-26T09:02:46;9.50;;;7.30;;
13040;SDS011;6587;42.728;23.288;2023-06-26T09:05:13;8.50;;;6.43;;
13040;SDS011;6587;42.728;23.288;2023-06-26T09:07:39;10.52;;;7.03;;
13040;SDS011;6587;42.728;23.288;2023-06-26T09:10:08;9.02;;;6.97;;
13040;SDS011;6587;42.728;23.288;2023-06-26T09:12:36;7.03;;;6.30;;
13040;SDS011;6587;42.728;23.288;2023-06-26T09:15:03;8.35;;;6.57;;
13040;SDS011;6587;42.728;23.288;2023-06-26T09:17:33;8.13;;;6.55;;
13040;SDS011;6587;42.728;23.288;2023-06-26T09:20:05;7.10;;;6.40;;
13040;SDS011;6587;42.728;23.288;2023-06-26T09:22:33;10.50;;;6.50;;
13040;SDS011;6587;42.728;23.288;2023-06-26T09:25:04;7.88;;;7.03;;
13040;SDS011;6587;42.728;23.288;2023-06-26T09:27:33;9.88;;;6.00;;
13040;SDS011;6587;42.728;23.288;2023-06-26T09:30:01;11.73;;;6.50;;
13040;SDS011;6587;42.728;23.288;2023-06-26T09:32:28;10.52;;;6.78;;
13040;SDS011;6587;42.728;23.288;2023-06-26T09:34:56;7.90;;;6.30;;
13040;SDS011;6587;42.728;23.288;2023-06-26T09:37:25;7.57;;;6.28;;
13040;SDS011;6587;42.728;23.288;2023-06-26T09:39:52;8.77;;;6.07;;
13040;SDS011;6587;42.728;23.288;2023-06-26T09:42:19;7.45;;;5.40;;
13040;SDS011;6587;42.728;23.288;2023-06-26T09:44:47;7.00;;;5.93;;
13040;SDS011;6587;42.728;23.288;2023-06-26T09:47:15;9.18;;;6.22;;
13040;SDS011;6587;42.728;23.288;2023-06-26T09:49:44;6.18;;;5.57;;
13040;SDS011;6587;42.728;23.288;2023-06-26T09:52:11;8.60;;;6.47;;
13040;SDS011;6587;42.728;23.288;2023-06-26T09:54:41;9.55;;;6.75;;
13040;SDS011;6587;42.728;23.288;2023-06-26T09:57:10;10.43;;;6.80;;
13040;SDS011;6587;42.728;23.288;2023-06-26T09:59:39;8.07;;;6.82;;
13040;SDS011;6587;42.728;23.288;2023-06-26T10:02:08;9.05;;;7.03;;
13040;SDS011;6587;42.728;23.288;2023-06-26T10:04:36;9.02;;;7.28;;
13040;SDS011;6587;42.728;23.288;2023-06-26T10:07:04;9.85;;;7.55;;
13040;SDS011;6587;42.728;23.288;2023-06-26T10:09:32;8.77;;;7.10;;
13040;SDS011;6587;42.728;23.288;2023-06-26T10:12:01;8.07;;;7.07;;
13040;SDS011;6587;42.728;23.288;2023-06-26T10:14:33;7.63;;;6.28;;
13040;SDS011;6587;42.728;23.288;2023-06-26T10:17:03;9.85;;;7.00;;
13040;SDS011;6587;42.728;23.288;2023-06-26T10:19:33;9.05;;;6.75;;
13040;SDS011;6587;42.728;23.288;2023-06-26T10:22:02;9.32;;;7.00;;
13040;SDS011;6587;42.728;23.288;2023-06-26T10:24:31;7.55;;;6.40;;
13040;SDS011;6587;42.728;23.288;2023-06-26T10:27:02;9.07;;;6.93;;
13040;SDS011;6587;42.728;23.288;2023-06-26T10:29:34;7.65;;;6.45;;
13040;SDS011;6587;42.728;23.288;2023-06-26T10:32:02;8.48;;;6.18;;
13040;SDS011;6587;42.728;23.288;2023-06-26T10:34:32;8.93;;;6.18;;
13040;SDS011;6587;42.728;23.288;2023-06-26T10:37:01;7.95;;;6.22;;
13040;SDS011;6587;42.728;23.288;2023-06-26T10:39:32;8.68;;;6.88;;
13040;SDS011;6587;42.728;23.288;2023-06-26T10:42:12;8.63;;;7.05;;
13040;SDS011;6587;42.728;23.288;2023-06-26T10:44:40;11.00;;;7.50;;
13040;SDS011;6587;42.728;23.288;2023-06-26T10:47:08;8.55;;;6.53;;
13040;SDS011;6587;42.728;23.288;2023-06-26T10:49:37;8.05;;;6.65;;
13040;SDS011;6587;42.728;23.288;2023-06-26T10:52:05;8.70;;;7.20;;
13040;SDS011;6587;42.728;23.288;2023-06-26T10:54:32;8.68;;;6.18;;
13040;SDS011;6587;42.728;23.288;2023-06-26T10:56:59;8.02;;;6.30;;
13040;SDS011;6587;42.728;23.288;2023-06-26T10:59:28;10.30;;;6.88;;
13040;SDS011;6587;42.728;23.288;2023-06-26T11:01:57;8.27;;;6.85;;
13040;SDS011;6587;42.728;23.288;2023-06-26T11:04:36;7.68;;;6.80;;
13040;SDS011;6587;42.728;23.288;2023-06-26T11:07:14;7.70;;;6.47;;
13040;SDS011;6587;42.728;23.288;2023-06-26T11:09:53;8.00;;;6.78;;
13040;SDS011;6587;42.728;23.288;2023-06-26T11:12:39;7.88;;;6.70;;
13040;SDS011;6587;42.728;23.288;2023-06-26T11:15:07;8.50;;;6.65;;
13040;SDS011;6587;42.728;23.288;2023-06-26T11:17:35;9.98;;;7.18;;
13040;SDS011;6587;42.728;23.288;2023-06-26T11:20:04;8.18;;;6.90;;
13040;SDS011;6587;42.728;23.288;2023-06-26T11:22:34;9.23;;;6.90;;
13040;SDS011;6587;42.728;23.288;2023-06-26T11:25:02;7.63;;;6.50;;
13040;SDS011;6587;42.728;23.288;2023-06-26T11:27:31;9.20;;;6.60;;
13040;SDS011;6587;42.728;23.288;2023-06-26T11:29:58;9.15;;;6.57;;
13040;SDS011;6587;42.728;23.288;2023-06-26T11:32:26;8.38;;;5.75;;
13040;SDS011;6587;42.728;23.288;2023-06-26T11:34:54;8.82;;;6.20;;
13040;SDS011;6587;42.728;23.288;2023-06-26T11:37:22;8.65;;;5.88;;
13040;SDS011;6587;42.728;23.288;2023-06-26T11:39:49;10.00;;;6.78;;
13040;SDS011;6587;42.728;23.288;2023-06-26T11:42:16;9.32;;;7.00;;
13040;SDS011;6587;42.728;23.288;2023-06-26T11:44:44;8.00;;;6.97;;
13040;SDS011;6587;42.728;23.288;2023-06-26T11:47:14;10.02;;;7.95;;
13040;SDS011;6587;42.728;23.288;2023-06-26T11:49:44;12.57;;;8.48;;
13040;SDS011;6587;42.728;23.288;2023-06-26T11:52:12;10.23;;;7.40;;
13040;SDS011;6587;42.728;23.288;2023-06-26T11:54:41;9.50;;;7.20;;
13040;SDS011;6587;42.728;23.288;2023-06-26T11:57:12;7.97;;;7.13;;
13040;SDS011;6587;42.728;23.288;2023-06-26T11:59:40;10.38;;;7.05;;
13040;SDS011;6587;42.728;23.288;2023-06-26T12:02:07;8.95;;;7.40;;
13040;SDS011;6587;42.728;23.288;2023-06-26T12:04:36;8.63;;;6.90;;
13040;SDS011;6587;42.728;23.288;2023-06-26T12:07:05;8.82;;;6.65;;
13040;SDS011;6587;42.728;23.288;2023-06-26T12:09:34;8.68;;;6.72;;
13040;SDS011;6587;42.728;23.288;2023-06-26T12:12:07;7.85;;;6.63;;
13040;SDS011;6587;42.728;23.288;2023-06-26T12:14:35;7.38;;;6.40;;
13040;SDS011;6587;42.728;23.288;2023-06-26T12:17:08;7.70;;;6.05;;
13040;SDS011;6587;42.728;23.288;2023-06-26T12:19:36;9.60;;;6.75;;
13040;SDS011;6587;42.728;23.288;2023-06-26T12:22:06;8.55;;;6.25;;
13040;SDS011;6587;42.728;23.288;2023-06-26T12:24:33;9.95;;;7.20;;
13040;SDS011;6587;42.728;23.288;2023-06-26T12:27:02;7.78;;;6.68;;
13040;SDS011;6587;42.728;23.288;2023-06-26T12:29:36;8.50;;;6.95;;
13040;SDS011;6587;42.728;23.288;2023-06-26T12:32:04;8.10;;;6.15;;
13040;SDS011;6587;42.728;23.288;2023-06-26T12:34:35;7.63;;;6.70;;
13040;SDS011;6587;42.728;23.288;2023-06-26T12:37:04;11.40;;;6.78;;
13040;SDS011;6587;42.728;23.288;2023-06-26T12:39:44;10.45;;;7.68;;
13040;SDS011;6587;42.728;23.288;2023-06-26T12:42:13;9.20;;;7.20;;
13040;SDS011;6587;42.728;23.288;2023-06-26T12:44:43;10.43;;;7.78;;
13040;SDS011;6587;42.728;23.288;2023-06-26T12:47:10;12.13;;;7.82;;
13040;SDS011;6587;42.728;23.288;2023-06-26T12:49:39;8.13;;;7.00;;
13040;SDS011;6587;42.728;23.288;2023-06-26T12:52:07;8.63;;;7.10;;
13040;SDS011;6587;42.728;23.288;2023-06-26T12:54:36;10.68;;;7.10;;
13040;SDS011;6587;42.728;23.288;2023-06-26T12:57:04;10.15;;;6.95;;
13040;SDS011;6587;42.728;23.288;2023-06-26T12:59:32;10.75;;;7.38;;
13040;SDS011;6587;42.728;23.288;2023-06-26T13:02:01;11.88;;;6.85;;
13040;SDS011;6587;42.728;23.288;2023-06-26T13:04:28;8.65;;;6.63;;
13040;SDS011;6587;42.728;23.288;2023-06-26T13:06:56;8.07;;;6.55;;
13040;SDS011;6587;42.728;23.288;2023-06-26T13:09:23;10.73;;;6.80;;
13040;SDS011;6587;42.728;23.288;2023-06-26T13:11:51;9.93;;;6.88;;
13040;SDS011;6587;42.728;23.288;2023-06-26T13:14:18;7.47;;;6.50;;
13040;SDS011;6587;42.728;23.288;2023-06-26T13:16:45;7.43;;;6.28;;
13040;SDS011;6587;42.728;23.288;2023-06-26T13:19:14;9.85;;;6.55;;
13040;SDS011;6587;42.728;23.288;2023-06-26T13:21:41;6.80;;;5.70;;
13040;SDS011;6587;42.728;23.288;2023-06-26T13:24:08;8.23;;;6.60;;
13040;SDS011;6587;42.728;23.288;2023-06-26T13:26:35;7.22;;;6.15;;
13040;SDS011;6587;42.728;23.288;2023-06-26T13:29:02;8.48;;;6.80;;
13040;SDS011;6587;42.728;23.288;2023-06-26T13:31:29;10.05;;;6.55;;
13040;SDS011;6587;42.728;23.288;2023-06-26T13:33:57;8.40;;;6.32;;
13040;SDS011;6587;42.728;23.288;2023-06-26T13:36:26;7.63;;;6.13;;
13040;SDS011;6587;42.728;23.288;2023-06-26T13:38:53;8.35;;;7.00;;
13040;SDS011;6587;42.728;23.288;2023-06-26T13:41:21;10.55;;;7.63;;
13040;SDS011;6587;42.728;23.288;2023-06-26T13:43:49;8.82;;;6.68;;
13040;SDS011;6587;42.728;23.288;2023-06-26T13:46:15;8.57;;;6.70;;
13040;SDS011;6587;42.728;23.288;2023-06-26T13:48:43;8.10;;;7.07;;
13040;SDS011;6587;42.728;23.288;2023-06-26T13:51:10;9.65;;;7.15;;
13040;SDS011;6587;42.728;23.288;2023-06-26T13:53:38;9.50;;;6.72;;
13040;SDS011;6587;42.728;23.288;2023-06-26T13:56:05;8.50;;;6.55;;
13040;SDS011;6587;42.728;23.288;2023-06-26T13:58:34;8.23;;;6.40;;
13040;SDS011;6587;42.728;23.288;2023-06-26T14:01:01;9.63;;;6.95;;
13040;SDS011;6587;42.728;23.288;2023-06-26T14:03:29;7.00;;;6.30;;
13040;SDS011;6587;42.728;23.288;2023-06-26T14:05:56;6.65;;;5.95;;
13040;SDS011;6587;42.728;23.288;2023-06-26T14:08:23;9.48;;;6.32;;
13040;SDS011;6587;42.728;23.288;2023-06-26T14:10:51;7.15;;;5.88;;
13040;SDS011;6587;42.728;23.288;2023-06-26T14:13:18;9.38;;;6.20;;
13040;SDS011;6587;42.728;23.288;2023-06-26T14:15:45;7.47;;;5.93;;
13040;SDS011;6587;42.728;23.288;2023-06-26T14:18:11;7.63;;;6.20;;
13040;SDS011;6587;42.728;23.288;2023-06-26T14:20:39;8.43;;;7.05;;
13040;SDS011;6587;42.728;23.288;2023-06-26T14:23:06;8.00;;;5.97;;
13040;SDS011;6587;42.728;23.288;2023-06-26T14:25:33;9.35;;;5.97;;
13040;SDS011;6587;42.728;23.288;2023-06-26T14:28:02;11.60;;;6.88;;
13040;SDS011;6587;42.728;23.288;2023-06-26T14:30:29;9.02;;;6.90;;
13040;SDS011;6587;42.728;23.288;2023-06-26T14:32:55;9.48;;;7.10;;
13040;SDS011;6587;42.728;23.288;2023-06-26T14:35:22;10.15;;;7.22;;